Observations for STORNOWAY, United Kingdom (EGPO)

EGPO 240920Z 09010KT 9999 FEW018 16/11 Q1022
EGPO 240850Z 03007KT 9999 FEW022 14/11 Q1021
EGPO 240820Z 09008KT CAVOK 15/10 Q1021  
EGPO 240750Z 07008KT CAVOK 15/11 Q1021  
EGPO 240720Z 06005KT CAVOK 14/10 Q1022  
EGPO 240650Z 08004KT CAVOK 13/10 Q1022  
EGPO 240620Z 05003KT 9999 FEW018 13/10 Q1022
EGPO 240550Z 11004KT 9999 FEW005 13/09 Q1022
EGPO 240520Z 05003KT 9999 FEW006 12/10 Q1021
EGPO 240450Z VRB03KT 9999 -RA FEW035 12/10 Q1021
EGPO 240420Z AUTO 00000KT 9999 NCD 12/10 Q1021  
EGPO 240350Z AUTO VRB01KT 9999 -RA NCD 12/10 Q1021  
EGPO 240320Z AUTO 00000KT 9999 NCD 12/10 Q1021  
EGPO 240250Z AUTO 14005KT 9999 NCD 13/10 Q1021  
EGPO 240220Z AUTO 12007KT 9999 NCD 13/11 Q1021  
EGPO 240150Z AUTO 00000KT 9999 NCD 13/11 Q1021  
EGPO 240120Z AUTO 05003KT 9999 NCD 13/11 Q1021  
EGPO 240050Z AUTO 05005KT 9999 NCD 13/11 Q1021  
EGPO 240020Z AUTO 04005KT 9999 NCD 13/11 Q1021  
EGPO 232350Z AUTO 05007KT 9999 NCD 13/11 Q1021  
EGPO 232320Z AUTO 04007KT 9999 NCD 12/11 Q1021  
EGPO 232250Z AUTO 04008KT 9999 NCD 12/11 Q1021  
EGPO 232220Z AUTO 04008KT 9999 NCD 12/11 Q1021  
EGPO 232150Z AUTO 03008KT 9999 NCD 12/11 Q1021  
EGPO 232120Z AUTO 03008KT 9999 NCD 13/11 Q1021  
EGPO 232050Z AUTO 03008KT 9999 NCD 13/11 Q1021  
EGPO 232020Z AUTO 03009KT 9999 NCD 13/11 Q1021  
EGPO 231950Z AUTO 06010KT 9999 NCD 13/11 Q1021  
EGPO 231920Z AUTO 04010KT 9999 NCD 13/11 Q1021  
EGPO 231850Z AUTO 04011KT 9999 NCD 13/11 Q1021  
EGPO 231820Z AUTO 03009KT 9999 NCD 13/11 Q1021  
EGPO 231750Z AUTO 03010KT 9999 NCD 14/11 Q1020  
EGPO 231720Z AUTO 04012KT 9999 NCD 14/11 Q1020  
EGPO 231650Z 02010KT CAVOK 15/11 Q1021  
EGPO 231620Z 04011KT CAVOK 14/11 Q1021  
EGPO 231550Z 04011KT CAVOK 15/12 Q1021  
EGPO 231520Z 03011KT 9999 FEW026 14/12 Q1021
EGPO 231450Z 04012KT 9999 FEW026 15/12 Q1021
EGPO 231420Z 04011KT 9999 FEW026 15/12 Q1021
EGPO 231350Z 04011KT 9999 FEW026 15/12 Q1021
EGPO 231320Z 04012KT 9999 FEW026 15/12 Q1021
EGPO 231250Z 04011KT 9999 FEW026 15/11 Q1021
EGPO 231220Z 04011KT 9999 FEW026 15/11 Q1022
EGPO 231150Z 03011KT 9999 FEW026 15/11 Q1022
EGPO 231120Z 04010KT 9999 FEW036 14/11 Q1022
EGPO 231050Z 04010KT 9999 FEW036 15/11 Q1022
EGPO 231020Z 04008KT 9999 FEW036 13/11 Q1022
EGPO 230950Z 03010KT 9999 FEW036 13/11 Q1022
EGPO 230920Z AUTO 02008KT 9999 NCD 13/11 Q1022  
EGPO 230850Z AUTO 04008KT 9999 NCD 13/11 Q1022